sensor_id;sensor_type;location;lat;lon;timestamp;temperature;humidity
18091;DHT22;9172;49.948;9.208;2023-09-12T00:00:55;19.90;99.90
18091;DHT22;9172;49.948;9.208;2023-09-12T00:03:24;19.90;99.90
18091;DHT22;9172;49.948;9.208;2023-09-12T00:05:53;19.80;99.90
18091;DHT22;9172;49.948;9.208;2023-09-12T00:08:22;19.80;99.90
18091;DHT22;9172;49.948;9.208;2023-09-12T00:11:02;19.80;99.90
18091;DHT22;9172;49.948;9.208;2023-09-12T00:13:32;19.80;99.90
18091;DHT22;9172;49.948;9.208;2023-09-12T00:16:01;19.80;99.90
18091;DHT22;9172;49.948;9.208;2023-09-12T00:18:30;19.80;99.90
18091;DHT22;9172;49.948;9.208;2023-09-12T00:20:58;19.80;99.90
18091;DHT22;9172;49.948;9.208;2023-09-12T00:23:28;19.80;99.90
18091;DHT22;9172;49.948;9.208;2023-09-12T00:25:57;19.80;99.90
18091;DHT22;9172;49.948;9.208;2023-09-12T00:28:26;19.80;99.90
18091;DHT22;9172;49.948;9.208;2023-09-12T00:30:54;19.80;99.90
18091;DHT22;9172;49.948;9.208;2023-09-12T00:33:23;19.80;99.90
18091;DHT22;9172;49.948;9.208;2023-09-12T00:35:51;19.80;99.90
18091;DHT22;9172;49.948;9.208;2023-09-12T00:38:20;19.80;99.90
18091;DHT22;9172;49.948;9.208;2023-09-12T00:40:48;19.80;99.90
18091;DHT22;9172;49.948;9.208;2023-09-12T00:43:17;19.70;99.90
18091;DHT22;9172;49.948;9.208;2023-09-12T00:45:46;19.70;99.90
18091;DHT22;9172;49.948;9.208;2023-09-12T00:48:15;19.70;99.90
18091;DHT22;9172;49.948;9.208;2023-09-12T00:50:44;19.70;99.90
18091;DHT22;9172;49.948;9.208;2023-09-12T00:53:13;19.60;99.90
18091;DHT22;9172;49.948;9.208;2023-09-12T00:58:21;19.60;99.90
18091;DHT22;9172;49.948;9.208;2023-09-12T01:00:50;19.50;99.90
18091;DHT22;9172;49.948;9.208;2023-09-12T01:03:18;19.50;99.90
18091;DHT22;9172;49.948;9.208;2023-09-12T01:05:47;19.50;99.90
18091;DHT22;9172;49.948;9.208;2023-09-12T01:08:16;19.50;99.90
18091;DHT22;9172;49.948;9.208;2023-09-12T01:10:45;19.40;99.90
18091;DHT22;9172;49.948;9.208;2023-09-12T01:13:14;19.40;99.90
18091;DHT22;9172;49.948;9.208;2023-09-12T01:15:43;19.40;99.90
18091;DHT22;9172;49.948;9.208;2023-09-12T01:18:12;19.40;99.90
18091;DHT22;9172;49.948;9.208;2023-09-12T01:23:29;19.20;99.90
18091;DHT22;9172;49.948;9.208;2023-09-12T01:26:17;19.20;99.90
18091;DHT22;9172;49.948;9.208;2023-09-12T01:28:48;19.20;99.90
18091;DHT22;9172;49.948;9.208;2023-09-12T01:31:18;19.20;99.90
18091;DHT22;9172;49.948;9.208;2023-09-12T01:33:47;19.20;99.90
18091;DHT22;9172;49.948;9.208;2023-09-12T01:36:16;19.20;99.90
18091;DHT22;9172;49.948;9.208;2023-09-12T01:38:45;19.20;99.90
18091;DHT22;9172;49.948;9.208;2023-09-12T01:41:13;19.20;99.90
18091;DHT22;9172;49.948;9.208;2023-09-12T01:43:43;19.20;99.90
18091;DHT22;9172;49.948;9.208;2023-09-12T01:46:12;19.20;99.90
18091;DHT22;9172;49.948;9.208;2023-09-12T01:48:42;19.20;99.90
18091;DHT22;9172;49.948;9.208;2023-09-12T01:51:12;19.10;99.90
18091;DHT22;9172;49.948;9.208;2023-09-12T01:53:42;19.20;99.90
18091;DHT22;9172;49.948;9.208;2023-09-12T01:56:12;19.10;99.90
18091;DHT22;9172;49.948;9.208;2023-09-12T01:58:41;19.10;99.90
18091;DHT22;9172;49.948;9.208;2023-09-12T02:01:09;19.10;99.90
18091;DHT22;9172;49.948;9.208;2023-09-12T02:03:39;19.10;99.90
18091;DHT22;9172;49.948;9.208;2023-09-12T02:06:08;19.10;99.90
18091;DHT22;9172;49.948;9.208;2023-09-12T02:08:36;19.10;99.90
18091;DHT22;9172;49.948;9.208;2023-09-12T02:11:05;19.00;99.90
18091;DHT22;9172;49.948;9.208;2023-09-12T02:13:34;19.00;99.90
18091;DHT22;9172;49.948;9.208;2023-09-12T02:16:03;19.00;99.90
18091;DHT22;9172;49.948;9.208;2023-09-12T02:18:31;19.00;99.90
18091;DHT22;9172;49.948;9.208;2023-09-12T02:21:00;20.10;99.90
18091;DHT22;9172;49.948;9.208;2023-09-12T02:23:28;19.10;99.90
18091;DHT22;9172;49.948;9.208;2023-09-12T02:25:57;19.10;99.90
18091;DHT22;9172;49.948;9.208;2023-09-12T02:28:25;19.10;99.90
18091;DHT22;9172;49.948;9.208;2023-09-12T02:30:54;19.00;99.90
18091;DHT22;9172;49.948;9.208;2023-09-12T02:33:23;19.00;99.90
18091;DHT22;9172;49.948;9.208;2023-09-12T02:35:51;18.90;99.90
18091;DHT22;9172;49.948;9.208;2023-09-12T02:38:20;18.90;99.90
18091;DHT22;9172;49.948;9.208;2023-09-12T02:40:48;18.90;99.90
18091;DHT22;9172;49.948;9.208;2023-09-12T02:43:17;18.90;99.90
18091;DHT22;9172;49.948;9.208;2023-09-12T02:45:45;18.80;99.90
18091;DHT22;9172;49.948;9.208;2023-09-12T02:48:14;18.80;99.90
18091;DHT22;9172;49.948;9.208;2023-09-12T02:50:43;18.70;99.90
18091;DHT22;9172;49.948;9.208;2023-09-12T02:53:13;18.70;99.90
18091;DHT22;9172;49.948;9.208;2023-09-12T02:55:42;18.70;99.90
18091;DHT22;9172;49.948;9.208;2023-09-12T02:58:11;18.70;99.90
18091;DHT22;9172;49.948;9.208;2023-09-12T03:00:40;18.60;99.90
18091;DHT22;9172;49.948;9.208;2023-09-12T03:03:09;18.60;99.90
18091;DHT22;9172;49.948;9.208;2023-09-12T03:05:37;18.60;99.90
18091;DHT22;9172;49.948;9.208;2023-09-12T03:08:06;18.60;99.90
18091;DHT22;9172;49.948;9.208;2023-09-12T03:10:34;18.70;99.90
18091;DHT22;9172;49.948;9.208;2023-09-12T03:13:03;18.70;99.90
18091;DHT22;9172;49.948;9.208;2023-09-12T03:15:37;18.70;99.90
18091;DHT22;9172;49.948;9.208;2023-09-12T03:20:44;18.70;99.90
18091;DHT22;9172;49.948;9.208;2023-09-12T03:23:13;18.60;99.90
18091;DHT22;9172;49.948;9.208;2023-09-12T03:25:42;18.60;99.90
18091;DHT22;9172;49.948;9.208;2023-09-12T03:28:10;18.50;99.90
18091;DHT22;9172;49.948;9.208;2023-09-12T03:30:39;18.50;99.90
18091;DHT22;9172;49.948;9.208;2023-09-12T03:33:08;18.50;99.90
18091;DHT22;9172;49.948;9.208;2023-09-12T03:35:37;18.50;99.90
18091;DHT22;9172;49.948;9.208;2023-09-12T03:38:05;18.40;99.90
18091;DHT22;9172;49.948;9.208;2023-09-12T03:40:34;18.40;99.90
18091;DHT22;9172;49.948;9.208;2023-09-12T03:43:03;18.30;99.90
18091;DHT22;9172;49.948;9.208;2023-09-12T03:45:32;18.20;99.90
18091;DHT22;9172;49.948;9.208;2023-09-12T03:48:00;18.20;99.90
18091;DHT22;9172;49.948;9.208;2023-09-12T03:50:29;18.30;99.90
18091;DHT22;9172;49.948;9.208;2023-09-12T03:52:57;18.30;99.90
18091;DHT22;9172;49.948;9.208;2023-09-12T03:55:26;18.40;99.90
18091;DHT22;9172;49.948;9.208;2023-09-12T03:57:55;18.40;99.90
18091;DHT22;9172;49.948;9.208;2023-09-12T04:00:24;18.50;99.90
18091;DHT22;9172;49.948;9.208;2023-09-12T04:02:52;18.50;99.90
18091;DHT22;9172;49.948;9.208;2023-09-12T04:05:21;18.50;99.90
18091;DHT22;9172;49.948;9.208;2023-09-12T04:07:49;18.50;99.90
18091;DHT22;9172;49.948;9.208;2023-09-12T04:10:19;18.50;99.90
18091;DHT22;9172;49.948;9.208;2023-09-12T04:12:48;18.40;99.90
18091;DHT22;9172;49.948;9.208;2023-09-12T04:15:17;18.30;99.90
18091;DHT22;9172;49.948;9.208;2023-09-12T04:17:46;18.20;99.90
18091;DHT22;9172;49.948;9.208;2023-09-12T04:20:15;18.20;99.90
18091;DHT22;9172;49.948;9.208;2023-09-12T04:22:43;18.20;99.90
18091;DHT22;9172;49.948;9.208;2023-09-12T04:25:12;18.20;99.90
18091;DHT22;9172;49.948;9.208;2023-09-12T04:27:42;18.20;99.90
18091;DHT22;9172;49.948;9.208;2023-09-12T04:30:12;18.20;99.90
18091;DHT22;9172;49.948;9.208;2023-09-12T04:32:41;18.30;99.90
18091;DHT22;9172;49.948;9.208;2023-09-12T04:35:10;18.30;99.90
18091;DHT22;9172;49.948;9.208;2023-09-12T04:37:38;18.30;99.90
18091;DHT22;9172;49.948;9.208;2023-09-12T04:40:09;18.10;99.90
18091;DHT22;9172;49.948;9.208;2023-09-12T04:42:38;18.10;99.90
18091;DHT22;9172;49.948;9.208;2023-09-12T04:45:08;18.10;99.90
18091;DHT22;9172;49.948;9.208;2023-09-12T04:47:37;18.20;99.90
18091;DHT22;9172;49.948;9.208;2023-09-12T04:50:08;18.20;99.90
18091;DHT22;9172;49.948;9.208;2023-09-12T04:52:36;18.20;99.90
18091;DHT22;9172;49.948;9.208;2023-09-12T04:55:07;18.20;99.90
18091;DHT22;9172;49.948;9.208;2023-09-12T04:57:35;18.10;99.90
18091;DHT22;9172;49.948;9.208;2023-09-12T05:00:06;18.00;99.90
18091;DHT22;9172;49.948;9.208;2023-09-12T05:02:36;18.10;99.90
18091;DHT22;9172;49.948;9.208;2023-09-12T05:05:06;18.10;99.90
18091;DHT22;9172;49.948;9.208;2023-09-12T05:07:35;18.10;99.90
18091;DHT22;9172;49.948;9.208;2023-09-12T05:10:05;18.10;99.90
18091;DHT22;9172;49.948;9.208;2023-09-12T05:12:34;18.20;99.90
18091;DHT22;9172;49.948;9.208;2023-09-12T05:15:03;18.20;99.90
18091;DHT22;9172;49.948;9.208;2023-09-12T05:17:32;18.10;99.90
18091;DHT22;9172;49.948;9.208;2023-09-12T05:20:01;18.00;99.90
18091;DHT22;9172;49.948;9.208;2023-09-12T05:22:30;18.10;99.90
18091;DHT22;9172;49.948;9.208;2023-09-12T05:24:58;18.10;99.90
18091;DHT22;9172;49.948;9.208;2023-09-12T05:27:27;18.20;99.90
18091;DHT22;9172;49.948;9.208;2023-09-12T05:29:55;18.20;99.90
18091;DHT22;9172;49.948;9.208;2023-09-12T05:32:24;18.20;99.90
18091;DHT22;9172;49.948;9.208;2023-09-12T05:34:52;18.20;99.90
18091;DHT22;9172;49.948;9.208;2023-09-12T05:37:21;18.30;99.90
18091;DHT22;9172;49.948;9.208;2023-09-12T05:39:50;18.30;99.90
18091;DHT22;9172;49.948;9.208;2023-09-12T05:42:18;18.30;99.90
18091;DHT22;9172;49.948;9.208;2023-09-12T05:44:48;18.40;99.90
18091;DHT22;9172;49.948;9.208;2023-09-12T05:47:17;18.40;99.90
18091;DHT22;9172;49.948;9.208;2023-09-12T05:49:46;18.40;99.90
18091;DHT22;9172;49.948;9.208;2023-09-12T05:52:14;18.40;99.90
18091;DHT22;9172;49.948;9.208;2023-09-12T05:54:44;18.40;99.90
18091;DHT22;9172;49.948;9.208;2023-09-12T05:57:12;18.40;99.90
18091;DHT22;9172;49.948;9.208;2023-09-12T05:59:41;18.40;99.90
18091;DHT22;9172;49.948;9.208;2023-09-12T06:02:09;18.40;99.90
18091;DHT22;9172;49.948;9.208;2023-09-12T06:04:38;18.40;99.90
18091;DHT22;9172;49.948;9.208;2023-09-12T06:07:07;18.40;99.90
18091;DHT22;9172;49.948;9.208;2023-09-12T06:09:35;18.50;99.90
18091;DHT22;9172;49.948;9.208;2023-09-12T06:12:06;18.50;99.90
18091;DHT22;9172;49.948;9.208;2023-09-12T06:14:34;18.60;99.90
18091;DHT22;9172;49.948;9.208;2023-09-12T06:19:40;18.60;99.90
18091;DHT22;9172;49.948;9.208;2023-09-12T06:22:09;18.70;99.90
18091;DHT22;9172;49.948;9.208;2023-09-12T06:24:38;18.70;99.90
18091;DHT22;9172;49.948;9.208;2023-09-12T06:27:06;18.80;99.90
18091;DHT22;9172;49.948;9.208;2023-09-12T06:29:35;18.80;99.90
18091;DHT22;9172;49.948;9.208;2023-09-12T06:32:04;18.80;99.90
18091;DHT22;9172;49.948;9.208;2023-09-12T06:34:33;18.90;99.90
18091;DHT22;9172;49.948;9.208;2023-09-12T06:37:01;18.90;99.90
18091;DHT22;9172;49.948;9.208;2023-09-12T06:39:30;19.00;99.90
18091;DHT22;9172;49.948;9.208;2023-09-12T06:44:35;19.00;99.90
18091;DHT22;9172;49.948;9.208;2023-09-12T06:47:06;19.00;99.90
18091;DHT22;9172;49.948;9.208;2023-09-12T06:49:36;19.00;99.90
18091;DHT22;9172;49.948;9.208;2023-09-12T06:52:06;19.00;99.90
18091;DHT22;9172;49.948;9.208;2023-09-12T06:54:36;19.00;99.90
18091;DHT22;9172;49.948;9.208;2023-09-12T06:59:42;19.00;99.90
18091;DHT22;9172;49.948;9.208;2023-09-12T07:02:10;19.10;99.90
18091;DHT22;9172;49.948;9.208;2023-09-12T07:04:40;19.10;99.90
18091;DHT22;9172;49.948;9.208;2023-09-12T07:07:08;19.20;99.90
18091;DHT22;9172;49.948;9.208;2023-09-12T07:09:37;19.30;99.90
18091;DHT22;9172;49.948;9.208;2023-09-12T07:12:07;19.40;99.90
18091;DHT22;9172;49.948;9.208;2023-09-12T07:14:37;19.40;99.90
18091;DHT22;9172;49.948;9.208;2023-09-12T07:17:07;19.50;99.90
18091;DHT22;9172;49.948;9.208;2023-09-12T07:19:36;19.50;99.90
18091;DHT22;9172;49.948;9.208;2023-09-12T07:22:05;19.60;99.90
18091;DHT22;9172;49.948;9.208;2023-09-12T07:24:34;19.60;99.90
18091;DHT22;9172;49.948;9.208;2023-09-12T07:27:03;19.70;99.90
18091;DHT22;9172;49.948;9.208;2023-09-12T07:29:31;19.80;99.90
18091;DHT22;9172;49.948;9.208;2023-09-12T07:32:00;19.90;99.90
18091;DHT22;9172;49.948;9.208;2023-09-12T07:34:28;20.10;99.90
18091;DHT22;9172;49.948;9.208;2023-09-12T07:36:57;20.30;99.90
18091;DHT22;9172;49.948;9.208;2023-09-12T07:39:26;20.50;99.90
18091;DHT22;9172;49.948;9.208;2023-09-12T07:41:54;20.60;99.90
18091;DHT22;9172;49.948;9.208;2023-09-12T07:44:23;20.70;99.90
18091;DHT22;9172;49.948;9.208;2023-09-12T07:49:27;20.90;99.90
18091;DHT22;9172;49.948;9.208;2023-09-12T07:51:56;21.10;99.90
18091;DHT22;9172;49.948;9.208;2023-09-12T07:54:25;21.20;99.90
18091;DHT22;9172;49.948;9.208;2023-09-12T07:56:53;21.30;99.90
18091;DHT22;9172;49.948;9.208;2023-09-12T07:59:22;21.30;99.90
18091;DHT22;9172;49.948;9.208;2023-09-12T08:01:51;21.20;99.90
18091;DHT22;9172;49.948;9.208;2023-09-12T08:04:20;20.50;99.90
18091;DHT22;9172;49.948;9.208;2023-09-12T08:06:48;21.30;99.90
18091;DHT22;9172;49.948;9.208;2023-09-12T08:09:18;21.40;99.90
18091;DHT22;9172;49.948;9.208;2023-09-12T08:11:46;21.50;99.90
18091;DHT22;9172;49.948;9.208;2023-09-12T08:14:15;21.60;99.90
18091;DHT22;9172;49.948;9.208;2023-09-12T08:16:43;21.70;99.90
18091;DHT22;9172;49.948;9.208;2023-09-12T08:19:12;21.90;99.90
18091;DHT22;9172;49.948;9.208;2023-09-12T08:21:40;22.00;99.90
18091;DHT22;9172;49.948;9.208;2023-09-12T08:24:09;22.10;99.90
18091;DHT22;9172;49.948;9.208;2023-09-12T08:26:38;22.20;99.90
18091;DHT22;9172;49.948;9.208;2023-09-12T08:29:07;22.30;99.90
18091;DHT22;9172;49.948;9.208;2023-09-12T08:31:36;22.30;99.90
18091;DHT22;9172;49.948;9.208;2023-09-12T08:34:04;22.40;99.90
18091;DHT22;9172;49.948;9.208;2023-09-12T08:36:33;22.40;99.90
18091;DHT22;9172;49.948;9.208;2023-09-12T08:39:03;22.50;99.90
18091;DHT22;9172;49.948;9.208;2023-09-12T08:41:32;22.60;99.90
18091;DHT22;9172;49.948;9.208;2023-09-12T08:44:01;22.80;99.90
18091;DHT22;9172;49.948;9.208;2023-09-12T08:46:32;22.80;99.90
18091;DHT22;9172;49.948;9.208;2023-09-12T08:49:01;22.90;99.90
18091;DHT22;9172;49.948;9.208;2023-09-12T08:51:30;23.00;99.90
18091;DHT22;9172;49.948;9.208;2023-09-12T08:53:59;23.10;99.90
18091;DHT22;9172;49.948;9.208;2023-09-12T08:56:30;23.30;99.90
18091;DHT22;9172;49.948;9.208;2023-09-12T08:59:00;23.40;99.90
18091;DHT22;9172;49.948;9.208;2023-09-12T09:01:31;23.50;99.90
18091;DHT22;9172;49.948;9.208;2023-09-12T09:04:02;23.60;99.90
18091;DHT22;9172;49.948;9.208;2023-09-12T09:06:32;23.70;99.90
18091;DHT22;9172;49.948;9.208;2023-09-12T09:09:05;23.70;99.90
18091;DHT22;9172;49.948;9.208;2023-09-12T09:11:35;23.80;99.90
18091;DHT22;9172;49.948;9.208;2023-09-12T09:14:04;23.80;99.90
18091;DHT22;9172;49.948;9.208;2023-09-12T09:19:10;24.00;99.90
18091;DHT22;9172;49.948;9.208;2023-09-12T09:21:39;24.20;99.90
18091;DHT22;9172;49.948;9.208;2023-09-12T09:24:10;24.30;99.90
18091;DHT22;9172;49.948;9.208;2023-09-12T09:26:46;24.40;99.90
18091;DHT22;9172;49.948;9.208;2023-09-12T09:29:16;24.50;99.90
18091;DHT22;9172;49.948;9.208;2023-09-12T09:31:46;24.60;99.90
18091;DHT22;9172;49.948;9.208;2023-09-12T09:34:17;24.70;99.90
18091;DHT22;9172;49.948;9.208;2023-09-12T09:36:47;24.80;99.90
18091;DHT22;9172;49.948;9.208;2023-09-12T09:39:17;24.80;99.90
18091;DHT22;9172;49.948;9.208;2023-09-12T09:41:48;24.90;99.90
18091;DHT22;9172;49.948;9.208;2023-09-12T09:44:18;25.00;99.90
18091;DHT22;9172;49.948;9.208;2023-09-12T09:46:47;25.10;99.90
18091;DHT22;9172;49.948;9.208;2023-09-12T09:49:18;25.20;99.90
18091;DHT22;9172;49.948;9.208;2023-09-12T09:51:47;25.40;99.90
18091;DHT22;9172;49.948;9.208;2023-09-12T09:54:16;25.50;99.90
18091;DHT22;9172;49.948;9.208;2023-09-12T09:56:48;25.70;99.90
18091;DHT22;9172;49.948;9.208;2023-09-12T09:59:19;25.90;99.90
18091;DHT22;9172;49.948;9.208;2023-09-12T10:01:49;26.10;99.90
18091;DHT22;9172;49.948;9.208;2023-09-12T10:04:18;26.30;99.90
18091;DHT22;9172;49.948;9.208;2023-09-12T10:06:47;26.40;99.90
18091;DHT22;9172;49.948;9.208;2023-09-12T10:09:17;26.60;99.90
18091;DHT22;9172;49.948;9.208;2023-09-12T10:14:26;26.90;99.90
18091;DHT22;9172;49.948;9.208;2023-09-12T10:19:38;27.10;99.90
18091;DHT22;9172;49.948;9.208;2023-09-12T10:22:09;27.10;99.90
18091;DHT22;9172;49.948;9.208;2023-09-12T10:24:40;27.20;99.90
18091;DHT22;9172;49.948;9.208;2023-09-12T10:27:12;27.30;99.90
18091;DHT22;9172;49.948;9.208;2023-09-12T10:29:41;27.30;99.90
18091;DHT22;9172;49.948;9.208;2023-09-12T10:32:11;27.30;99.90
18091;DHT22;9172;49.948;9.208;2023-09-12T10:34:40;27.20;99.90
18091;DHT22;9172;49.948;9.208;2023-09-12T10:37:12;27.30;99.90
18091;DHT22;9172;49.948;9.208;2023-09-12T10:39:43;27.40;99.90
18091;DHT22;9172;49.948;9.208;2023-09-12T10:42:13;27.40;99.90
18091;DHT22;9172;49.948;9.208;2023-09-12T10:44:44;27.50;99.90
18091;DHT22;9172;49.948;9.208;2023-09-12T10:47:15;27.60;99.90
18091;DHT22;9172;49.948;9.208;2023-09-12T10:49:44;27.70;99.90
18091;DHT22;9172;49.948;9.208;2023-09-12T10:52:24;27.70;99.90
18091;DHT22;9172;49.948;9.208;2023-09-12T10:54:54;27.80;99.90
18091;DHT22;9172;49.948;9.208;2023-09-12T10:57:22;28.00;99.90
18091;DHT22;9172;49.948;9.208;2023-09-12T11:00:12;28.10;99.90
18091;DHT22;9172;49.948;9.208;2023-09-12T11:02:42;28.10;99.90
18091;DHT22;9172;49.948;9.208;2023-09-12T11:05:50;28.10;99.90
18091;DHT22;9172;49.948;9.208;2023-09-12T11:08:12;28.10;99.90
18091;DHT22;9172;49.948;9.208;2023-09-12T11:10:41;28.20;99.90
18091;DHT22;9172;49.948;9.208;2023-09-12T11:13:18;28.20;99.90
18091;DHT22;9172;49.948;9.208;2023-09-12T11:16:12;28.20;99.90
18091;DHT22;9172;49.948;9.208;2023-09-12T11:19:18;28.20;99.90
18091;DHT22;9172;49.948;9.208;2023-09-12T11:21:48;28.20;99.90
18091;DHT22;9172;49.948;9.208;2023-09-12T11:24:19;28.30;99.90
18091;DHT22;9172;49.948;9.208;2023-09-12T11:26:55;28.30;99.90
18091;DHT22;9172;49.948;9.208;2023-09-12T11:29:28;28.40;99.90
18091;DHT22;9172;49.948;9.208;2023-09-12T11:31:58;28.50;99.90
18091;DHT22;9172;49.948;9.208;2023-09-12T11:34:28;28.50;99.90
18091;DHT22;9172;49.948;9.208;2023-09-12T11:36:58;28.50;99.90
18091;DHT22;9172;49.948;9.208;2023-09-12T11:39:30;28.40;99.90
18091;DHT22;9172;49.948;9.208;2023-09-12T11:42:00;28.50;99.90
18091;DHT22;9172;49.948;9.208;2023-09-12T11:44:29;28.50;99.90
18091;DHT22;9172;49.948;9.208;2023-09-12T11:47:00;28.50;99.90
18091;DHT22;9172;49.948;9.208;2023-09-12T11:49:37;28.50;99.90
18091;DHT22;9172;49.948;9.208;2023-09-12T11:52:08;28.50;99.90
18091;DHT22;9172;49.948;9.208;2023-09-12T11:54:38;28.50;99.90
18091;DHT22;9172;49.948;9.208;2023-09-12T11:57:08;28.50;99.90
18091;DHT22;9172;49.948;9.208;2023-09-12T11:59:41;28.50;99.90
18091;DHT22;9172;49.948;9.208;2023-09-12T12:02:12;28.60;99.90
18091;DHT22;9172;49.948;9.208;2023-09-12T12:04:41;28.40;99.90
18091;DHT22;9172;49.948;9.208;2023-09-12T12:07:10;28.40;99.90
18091;DHT22;9172;49.948;9.208;2023-09-12T12:09:39;28.40;99.90
18091;DHT22;9172;49.948;9.208;2023-09-12T12:12:12;28.50;99.90
18091;DHT22;9172;49.948;9.208;2023-09-12T12:14:42;28.50;99.90
18091;DHT22;9172;49.948;9.208;2023-09-12T12:17:12;28.50;99.90
18091;DHT22;9172;49.948;9.208;2023-09-12T12:19:45;28.50;99.90
18091;DHT22;9172;49.948;9.208;2023-09-12T12:22:14;28.60;99.90
18091;DHT22;9172;49.948;9.208;2023-09-12T12:24:45;28.50;99.90
18091;DHT22;9172;49.948;9.208;2023-09-12T12:27:15;28.60;99.90
18091;DHT22;9172;49.948;9.208;2023-09-12T12:29:44;28.60;99.90
18091;DHT22;9172;49.948;9.208;2023-09-12T12:34:52;28.40;99.90
18091;DHT22;9172;49.948;9.208;2023-09-12T12:37:25;28.30;99.90
18091;DHT22;9172;49.948;9.208;2023-09-12T12:39:53;28.30;99.90
18091;DHT22;9172;49.948;9.208;2023-09-12T12:42:22;28.20;99.90
18091;DHT22;9172;49.948;9.208;2023-09-12T12:44:54;28.20;99.90
18091;DHT22;9172;49.948;9.208;2023-09-12T12:47:23;28.20;99.90
18091;DHT22;9172;49.948;9.208;2023-09-12T12:49:52;28.30;99.90
18091;DHT22;9172;49.948;9.208;2023-09-12T12:52:24;28.30;99.90
18091;DHT22;9172;49.948;9.208;2023-09-12T12:54:53;28.30;99.90
18091;DHT22;9172;49.948;9.208;2023-09-12T12:57:22;28.30;99.90
18091;DHT22;9172;49.948;9.208;2023-09-12T12:59:51;28.40;99.90
18091;DHT22;9172;49.948;9.208;2023-09-12T13:02:19;28.40;99.90
18091;DHT22;9172;49.948;9.208;2023-09-12T13:04:48;28.50;99.90
18091;DHT22;9172;49.948;9.208;2023-09-12T13:07:16;28.40;99.90
18091;DHT22;9172;49.948;9.208;2023-09-12T13:09:45;28.40;99.90
18091;DHT22;9172;49.948;9.208;2023-09-12T13:12:15;28.40;99.90
18091;DHT22;9172;49.948;9.208;2023-09-12T13:14:45;28.40;99.90
18091;DHT22;9172;49.948;9.208;2023-09-12T13:17:14;28.40;99.90
18091;DHT22;9172;49.948;9.208;2023-09-12T13:19:43;28.40;99.90
18091;DHT22;9172;49.948;9.208;2023-09-12T13:22:11;28.40;99.90
18091;DHT22;9172;49.948;9.208;2023-09-12T13:24:40;28.50;99.90
18091;DHT22;9172;49.948;9.208;2023-09-12T13:27:08;28.50;99.90
18091;DHT22;9172;49.948;9.208;2023-09-12T13:29:37;28.40;99.90
18091;DHT22;9172;49.948;9.208;2023-09-12T13:32:06;28.30;99.90
18091;DHT22;9172;49.948;9.208;2023-09-12T13:34:35;28.30;99.90
18091;DHT22;9172;49.948;9.208;2023-09-12T13:37:04;28.40;99.90
18091;DHT22;9172;49.948;9.208;2023-09-12T13:39:32;28.30;99.90
18091;DHT22;9172;49.948;9.208;2023-09-12T13:42:01;28.30;99.90
18091;DHT22;9172;49.948;9.208;2023-09-12T13:44:31;28.40;99.90
18091;DHT22;9172;49.948;9.208;2023-09-12T13:47:00;28.40;99.90
18091;DHT22;9172;49.948;9.208;2023-09-12T13:49:28;28.40;99.90
18091;DHT22;9172;49.948;9.208;2023-09-12T13:51:57;28.50;99.90
18091;DHT22;9172;49.948;9.208;2023-09-12T13:54:25;28.50;99.90
18091;DHT22;9172;49.948;9.208;2023-09-12T13:56:54;28.50;99.90
18091;DHT22;9172;49.948;9.208;2023-09-12T13:59:22;28.50;99.90
18091;DHT22;9172;49.948;9.208;2023-09-12T14:01:51;28.40;99.90
18091;DHT22;9172;49.948;9.208;2023-09-12T14:04:19;28.50;99.90
18091;DHT22;9172;49.948;9.208;2023-09-12T14:06:48;28.40;99.90
18091;DHT22;9172;49.948;9.208;2023-09-12T14:09:17;28.40;99.90
18091;DHT22;9172;49.948;9.208;2023-09-12T14:11:45;28.40;99.90
18091;DHT22;9172;49.948;9.208;2023-09-12T14:14:15;28.40;99.90
18091;DHT22;9172;49.948;9.208;2023-09-12T14:16:44;28.40;99.90
18091;DHT22;9172;49.948;9.208;2023-09-12T14:19:13;28.40;99.90
18091;DHT22;9172;49.948;9.208;2023-09-12T14:21:42;28.50;99.90
18091;DHT22;9172;49.948;9.208;2023-09-12T14:24:11;28.50;99.90
18091;DHT22;9172;49.948;9.208;2023-09-12T14:26:40;28.50;99.90
18091;DHT22;9172;49.948;9.208;2023-09-12T14:29:08;28.60;99.90
18091;DHT22;9172;49.948;9.208;2023-09-12T14:31:38;28.50;99.90
18091;DHT22;9172;49.948;9.208;2023-09-12T14:34:07;28.50;99.90
18091;DHT22;9172;49.948;9.208;2023-09-12T14:36:35;28.50;99.90
18091;DHT22;9172;49.948;9.208;2023-09-12T14:39:04;28.50;99.90
18091;DHT22;9172;49.948;9.208;2023-09-12T14:41:33;28.50;99.90
18091;DHT22;9172;49.948;9.208;2023-09-12T14:44:02;28.50;99.90
18091;DHT22;9172;49.948;9.208;2023-09-12T14:46:32;28.50;99.90
18091;DHT22;9172;49.948;9.208;2023-09-12T14:49:01;28.50;99.90
18091;DHT22;9172;49.948;9.208;2023-09-12T14:51:30;28.60;99.90
18091;DHT22;9172;49.948;9.208;2023-09-12T14:53:59;28.60;99.90
18091;DHT22;9172;49.948;9.208;2023-09-12T14:56:27;28.60;99.90
18091;DHT22;9172;49.948;9.208;2023-09-12T14:58:56;28.60;99.90
18091;DHT22;9172;49.948;9.208;2023-09-12T15:01:24;28.70;99.90
18091;DHT22;9172;49.948;9.208;2023-09-12T15:03:54;28.60;99.90
18091;DHT22;9172;49.948;9.208;2023-09-12T15:06:23;28.60;99.90
18091;DHT22;9172;49.948;9.208;2023-09-12T15:08:52;28.60;99.90
18091;DHT22;9172;49.948;9.208;2023-09-12T15:11:21;28.60;99.90
18091;DHT22;9172;49.948;9.208;2023-09-12T15:13:49;28.50;99.90
18091;DHT22;9172;49.948;9.208;2023-09-12T15:16:18;28.50;99.90
18091;DHT22;9172;49.948;9.208;2023-09-12T15:18:47;28.40;99.90
18091;DHT22;9172;49.948;9.208;2023-09-12T15:21:15;28.40;99.90
18091;DHT22;9172;49.948;9.208;2023-09-12T15:23:44;28.40;99.90
18091;DHT22;9172;49.948;9.208;2023-09-12T15:26:13;28.40;99.90
18091;DHT22;9172;49.948;9.208;2023-09-12T15:28:41;28.40;99.90
18091;DHT22;9172;49.948;9.208;2023-09-12T15:31:10;28.40;99.90
18091;DHT22;9172;49.948;9.208;2023-09-12T15:33:39;28.40;99.90
18091;DHT22;9172;49.948;9.208;2023-09-12T15:36:08;28.30;99.90
18091;DHT22;9172;49.948;9.208;2023-09-12T15:38:36;28.30;99.90
18091;DHT22;9172;49.948;9.208;2023-09-12T15:41:05;28.20;99.90
18091;DHT22;9172;49.948;9.208;2023-09-12T15:43:35;28.10;99.90
18091;DHT22;9172;49.948;9.208;2023-09-12T15:46:03;28.10;99.90
18091;DHT22;9172;49.948;9.208;2023-09-12T15:48:32;28.10;99.90
18091;DHT22;9172;49.948;9.208;2023-09-12T15:51:01;28.10;99.90
18091;DHT22;9172;49.948;9.208;2023-09-12T15:53:31;28.10;99.90
18091;DHT22;9172;49.948;9.208;2023-09-12T15:56:00;28.10;99.90
18091;DHT22;9172;49.948;9.208;2023-09-12T15:58:28;28.10;99.90
18091;DHT22;9172;49.948;9.208;2023-09-12T16:00:57;28.00;99.90
18091;DHT22;9172;49.948;9.208;2023-09-12T16:03:27;28.00;99.90
18091;DHT22;9172;49.948;9.208;2023-09-12T16:05:55;27.90;99.90
18091;DHT22;9172;49.948;9.208;2023-09-12T16:08:24;27.90;99.90
18091;DHT22;9172;49.948;9.208;2023-09-12T16:10:54;27.80;99.90
18091;DHT22;9172;49.948;9.208;2023-09-12T16:13:22;27.70;99.90
18091;DHT22;9172;49.948;9.208;2023-09-12T16:15:51;27.70;99.90
18091;DHT22;9172;49.948;9.208;2023-09-12T16:18:20;27.60;99.90
18091;DHT22;9172;49.948;9.208;2023-09-12T16:20:48;27.50;99.90
18091;DHT22;9172;49.948;9.208;2023-09-12T16:23:17;27.50;99.90
18091;DHT22;9172;49.948;9.208;2023-09-12T16:25:46;27.40;99.90
18091;DHT22;9172;49.948;9.208;2023-09-12T16:28:16;27.30;99.90